Time;durP1;ratioP1;P1;durP2;ratioP2;P2;SDS_P1;SDS_P2;PMS_P1;PMS_P2;Temp;Humidity;BMP_temperature;BMP_pressure;BME280_temperature;BME280_humidity;BME280_pressure;Samples;Min_cycle;Max_cycle;Signal;HPM_P1;HPM_P2
2022/05/04 00:01:41;;;;;;;;;;;10.90;99.90;;;;;;5098861;28;20002;-84
2022/05/04 00:04:06;;;;;;;;;;;10.90;99.90;;;;;;5117119;28;20356;-84
2022/05/04 00:06:32;;;;;;;;;;;10.90;99.90;;;;;;5116866;28;19943;-84
2022/05/04 00:08:57;;;;;;;;;;;11.00;99.90;;;;;;5098356;28;19904;-85
2022/05/04 00:11:23;;;;;;;;;;;11.00;99.90;;;;;;5098401;28;20022;-84
2022/05/04 00:13:48;;;;;;;;;;;11.10;99.90;;;;;;5117265;28;19908;-84
2022/05/04 00:16:14;;;;;;;;;;;11.20;99.90;;;;;;5098745;28;19903;-84
2022/05/04 00:18:40;;;;;;;;;;;11.20;99.90;;;;;;5098786;28;19911;-84
2022/05/04 00:21:07;;;;;;;;;;;11.30;99.90;;;;;;5098687;28;20423;-84
2022/05/04 00:23:33;;;;;;;8.55;3.88;;;11.30;99.90;;;;;;5117273;28;20359;-84
2022/05/04 00:25:59;;;;;;;9.30;3.72;;;11.30;99.90;;;;;;5099171;28;20035;-84
2022/05/04 00:28:24;;;;;;;6.53;3.38;;;11.30;99.90;;;;;;5098846;28;20133;-84
2022/05/04 00:30:52;;;;;;;5.22;2.28;;;11.30;99.90;;;;;;5099299;28;20487;-84
2022/05/04 00:33:18;;;;;;;2.95;1.98;;;11.30;99.90;;;;;;5116958;28;20019;-84
2022/05/04 00:35:44;;;;;;;4.78;1.85;;;11.20;99.90;;;;;;5100592;28;20024;-84
2022/05/04 00:38:10;;;;;;;2.00;1.40;;;11.20;99.90;;;;;;5102014;28;20077;-84
2022/05/04 00:40:36;;;;;;;2.88;1.58;;;11.20;99.90;;;;;;5119508;28;20051;-84
2022/05/04 00:43:02;;;;;;;2.50;1.50;;;11.30;99.90;;;;;;5101954;28;20031;-84
2022/05/04 00:45:28;;;;;;;2.72;1.75;;;11.30;99.90;;;;;;5120058;28;20031;-84
2022/05/04 00:47:53;;;;;;;2.97;1.52;;;11.30;99.90;;;;;;5099942;28;20024;-85
2022/05/04 00:50:20;;;;;;;3.05;1.60;;;11.30;99.90;;;;;;5117387;28;20023;-85
2022/05/04 00:52:48;;;;;;;3.67;1.70;;;11.30;99.90;;;;;;5117065;28;20051;-85
2022/05/04 00:55:18;;;;;;;2.88;1.65;;;11.30;99.90;;;;;;5099270;28;20024;-85
2022/05/04 01:00:29;;;;;;;3.40;1.70;;;11.30;99.90;;;;;;5117522;28;20031;-85
2022/05/04 01:02:55;;;;;;;2.72;1.55;;;11.20;99.90;;;;;;5116580;28;20072;-85
2022/05/04 01:05:21;;;;;;;3.17;1.60;;;11.10;99.90;;;;;;5099474;28;20028;-85
2022/05/04 01:07:48;;;;;;;3.55;2.05;;;11.00;99.90;;;;;;5117546;28;20028;-85
2022/05/04 01:10:15;;;;;;;3.42;1.90;;;10.90;99.90;;;;;;5115342;28;20034;-85
2022/05/04 01:12:51;;;;;;;3.28;2.13;;;10.80;99.90;;;;;;5084801;28;20028;-85
2022/05/04 01:15:18;;;;;;;2.60;1.90;;;10.60;99.90;;;;;;5116664;28;20027;-85
2022/05/04 01:17:45;;;;;;;4.28;2.28;;;10.60;99.90;;;;;;5098266;28;20030;-86
2022/05/04 01:20:11;;;;;;;3.40;2.10;;;10.50;99.90;;;;;;5116180;28;20027;-85
2022/05/04 01:22:37;;;;;;;3.00;1.90;;;10.50;99.90;;;;;;5097358;28;20024;-85
2022/05/04 01:25:03;;;;;;;2.42;1.70;;;10.40;99.90;;;;;;5114593;28;20503;-85
2022/05/04 01:27:29;;;;;;;3.08;2.00;;;10.30;99.90;;;;;;5096873;28;20480;-85
2022/05/04 01:29:55;;;;;;;3.42;1.63;;;10.20;99.90;;;;;;5130948;27;20020;-85
2022/05/04 01:32:20;;;;;;;2.42;1.55;;;10.10;99.90;;;;;;5130990;27;20072;-85
2022/05/04 01:34:46;;;;;;;3.00;1.80;;;10.00;99.90;;;;;;5130817;27;20058;-84
2022/05/04 01:37:12;;;;;;;2.55;1.48;;;9.90;99.90;;;;;;5131025;27;20395;-84
2022/05/04 01:39:37;;;;;;;2.67;1.67;;;9.90;99.90;;;;;;5131112;27;20028;-85
2022/05/04 01:42:03;;;;;;;4.60;1.95;;;10.00;99.90;;;;;;5114886;28;20027;-85
2022/05/04 01:44:30;;;;;;;3.38;1.77;;;10.00;99.90;;;;;;5116291;27;20110;-84
2022/05/04 01:46:56;;;;;;;5.10;2.65;;;10.00;99.90;;;;;;5114745;28;20032;-85
2022/05/04 01:49:21;;;;;;;4.88;2.38;;;10.00;99.90;;;;;;5096495;28;20028;-85
2022/05/04 01:51:47;;;;;;;4.38;2.05;;;9.90;99.90;;;;;;5114810;28;20541;-85
2022/05/04 01:54:13;;;;;;;2.80;1.60;;;9.80;99.90;;;;;;5114566;28;20023;-85
2022/05/04 01:56:38;;;;;;;3.33;1.60;;;9.70;99.90;;;;;;5114533;28;20065;-84
2022/05/04 01:59:04;;;;;;;2.78;1.95;;;9.50;99.90;;;;;;5096304;28;20023;-84
2022/05/04 02:01:30;;;;;;;4.63;2.40;;;9.30;99.90;;;;;;5096457;28;20510;-84
2022/05/04 02:03:57;;;;;;;3.42;2.30;;;9.20;99.90;;;;;;5096583;28;20020;-83
2022/05/04 02:06:22;;;;;;;4.28;2.08;;;9.20;99.90;;;;;;5096072;28;20412;-84
2022/05/04 02:08:48;;;;;;;3.13;2.10;;;9.20;99.90;;;;;;5113323;28;20053;-83
2022/05/04 02:11:14;;;;;;;5.50;2.00;;;9.20;99.90;;;;;;5114475;28;20380;-83
2022/05/04 02:13:40;;;;;;;3.67;1.92;;;9.30;99.90;;;;;;5096117;28;20034;-84
2022/05/04 02:16:05;;;;;;;3.13;1.95;;;9.30;99.90;;;;;;5096083;28;20176;-84
2022/05/04 02:18:33;;;;;;;3.50;2.10;;;9.30;99.90;;;;;;5114262;28;20255;-84
2022/05/04 02:20:58;;;;;;;3.17;1.80;;;9.40;99.90;;;;;;5095766;28;20114;-83
2022/05/04 02:23:24;;;;;;;6.57;3.90;;;9.40;99.90;;;;;;5096749;28;20100;-83
2022/05/04 02:25:50;;;;;;;9.63;5.50;;;9.30;99.90;;;;;;5114033;28;20463;-84
2022/05/04 02:28:16;;;;;;;9.50;4.88;;;9.30;99.90;;;;;;5095734;28;20024;-85
2022/05/04 02:30:43;;;;;;;7.43;4.70;;;9.30;99.90;;;;;;5095820;28;20541;-84
2022/05/04 02:33:09;;;;;;;4.65;4.10;;;9.30;99.90;;;;;;5114090;28;20026;-84
2022/05/04 02:38:19;;;;;;;3.17;2.03;;;9.20;99.90;;;;;;5114740;28;20038;-84
2022/05/04 02:40:45;;;;;;;5.75;1.98;;;9.30;99.90;;;;;;5095626;28;20462;-84
2022/05/04 02:43:10;;;;;;;3.08;1.70;;;9.30;99.90;;;;;;5113851;28;20105;-84
2022/05/04 02:45:36;;;;;;;3.70;1.77;;;9.30;99.90;;;;;;5112289;28;20027;-84
2022/05/04 02:48:02;;;;;;;3.13;2.20;;;9.30;99.90;;;;;;5095819;28;20093;-84
2022/05/04 02:50:28;;;;;;;4.22;2.03;;;9.30;99.90;;;;;;5114076;28;20047;-84
2022/05/04 02:52:53;;;;;;;3.70;2.80;;;9.20;99.90;;;;;;5095623;28;20053;-84
2022/05/04 02:55:19;;;;;;;3.78;2.70;;;9.10;99.90;;;;;;5113847;28;20027;-84
2022/05/04 02:57:45;;;;;;;3.00;2.67;;;9.00;99.90;;;;;;5095871;28;20031;-84
2022/05/04 03:00:11;;;;;;;3.17;2.55;;;8.90;99.90;;;;;;5095575;28;20436;-84
2022/05/04 03:02:37;;;;;;;3.53;2.53;;;8.80;99.90;;;;;;5095198;28;20032;-84
2022/05/04 03:05:05;;;;;;;3.95;2.30;;;8.70;99.90;;;;;;5113716;28;20022;-84
2022/05/04 03:07:31;;;;;;;3.20;2.10;;;8.60;99.90;;;;;;5095650;28;20434;-84
2022/05/04 03:09:58;;;;;;;3.30;1.77;;;8.60;99.90;;;;;;5113495;28;20027;-84
2022/05/04 03:12:24;;;;;;;3.88;1.95;;;8.50;99.90;;;;;;5095428;28;20022;-84
2022/05/04 03:14:50;;;;;;;3.42;2.22;;;8.40;99.90;;;;;;5095327;28;20464;-84
2022/05/04 03:17:17;;;;;;;3.20;1.90;;;8.30;99.90;;;;;;5113696;28;20024;-84
2022/05/04 03:19:43;;;;;;;6.22;2.33;;;8.20;99.90;;;;;;5095312;28;20460;-84
2022/05/04 03:22:09;;;;;;;4.07;2.08;;;8.10;99.90;;;;;;5113509;28;20085;-84
2022/05/04 03:24:35;;;;;;;2.90;1.90;;;8.00;99.90;;;;;;5095360;28;20103;-85
2022/05/04 03:27:01;;;;;;;5.30;2.88;;;7.90;99.90;;;;;;5095141;28;20110;-84
2022/05/04 03:29:27;;;;;;;11.70;4.88;;;8.00;99.90;;;;;;5113491;28;20069;-84
2022/05/04 03:31:53;;;;;;;23.17;8.40;;;8.00;99.90;;;;;;5095174;28;20476;-84
2022/05/04 03:34:18;;;;;;;28.60;9.40;;;8.10;99.90;;;;;;5095286;28;20039;-84
2022/05/04 03:36:45;;;;;;;15.07;5.70;;;8.20;99.90;;;;;;5095343;28;20046;-84
2022/05/04 03:39:11;;;;;;;8.07;3.22;;;8.20;99.90;;;;;;5094913;28;20502;-84
2022/05/04 03:41:38;;;;;;;4.82;2.38;;;8.20;99.90;;;;;;5112137;28;20044;-84
2022/05/04 03:44:04;;;;;;;4.43;1.95;;;8.30;99.90;;;;;;5095139;28;20028;-84
2022/05/04 03:46:44;;;;;;;3.05;1.80;;;8.30;99.90;;;;;;5113645;28;20106;-84
2022/05/04 03:49:10;;;;;;;2.70;1.73;;;8.20;99.90;;;;;;5100058;28;20020;-84
2022/05/04 03:51:36;;;;;;;3.60;1.80;;;8.30;99.90;;;;;;5100624;28;20369;-84
2022/05/04 03:54:02;;;;;;;3.38;1.60;;;8.30;99.90;;;;;;5117950;28;20475;-84
2022/05/04 03:56:29;;;;;;;3.33;1.48;;;8.30;99.90;;;;;;5113379;28;20035;-84
2022/05/04 03:58:55;;;;;;;2.75;1.75;;;8.30;99.90;;;;;;5095700;28;20050;-83
2022/05/04 04:01:21;;;;;;;3.42;2.00;;;8.30;99.90;;;;;;5125013;27;20480;-83
2022/05/04 04:03:47;;;;;;;8.43;3.33;;;8.30;99.90;;;;;;5098848;28;20036;-84
2022/05/04 04:06:13;;;;;;;8.00;4.22;;;8.20;99.90;;;;;;5116881;28;20024;-84
2022/05/04 04:08:39;;;;;;;7.38;4.07;;;8.20;99.90;;;;;;5098787;28;20032;-84
2022/05/04 04:11:05;;;;;;;5.68;3.40;;;8.20;99.90;;;;;;5098470;28;20027;-84
2022/05/04 04:13:31;;;;;;;15.95;8.30;;;8.20;99.90;;;;;;5097847;28;20027;-83
2022/05/04 04:15:57;;;;;;;50.03;25.38;;;8.10;99.90;;;;;;5096189;28;20169;-84
2022/05/04 04:18:24;;;;;;;55.85;32.83;;;8.00;99.90;;;;;;5098308;28;20403;-84
2022/05/04 04:23:35;;;;;;;41.78;28.98;;;7.80;99.90;;;;;;5104061;28;20039;-82
2022/05/04 04:26:02;;;;;;;32.72;23.63;;;7.80;99.90;;;;;;5077875;28;20028;-81
2022/05/04 04:28:28;;;;;;;16.63;10.88;;;7.80;99.90;;;;;;5096158;28;20031;-82
2022/05/04 04:30:54;;;;;;;8.45;5.72;;;7.70;99.90;;;;;;5096031;28;20020;-82
2022/05/04 04:33:24;;;;;;;6.43;3.67;;;7.70;99.90;;;;;;5096292;28;20039;-82
2022/05/04 04:35:51;;;;;;;3.80;2.53;;;7.80;99.90;;;;;;5095646;28;20046;-82
2022/05/04 04:38:17;;;;;;;5.30;2.80;;;7.80;99.90;;;;;;5095721;28;20023;-82
2022/05/04 04:40:42;;;;;;;4.07;2.72;;;7.80;99.90;;;;;;5077388;28;20024;-82
2022/05/04 04:43:08;;;;;;;3.15;2.35;;;7.90;99.90;;;;;;5095211;28;20552;-82
2022/05/04 04:45:34;;;;;;;3.08;2.25;;;7.90;99.90;;;;;;5075789;28;20024;-82
2022/05/04 04:48:00;;;;;;;5.05;2.85;;;7.90;99.90;;;;;;5095102;28;20482;-82
2022/05/04 04:50:25;;;;;;;9.15;5.15;;;7.90;99.90;;;;;;5095631;28;20070;-82
2022/05/04 04:52:51;;;;;;;20.10;10.60;;;8.00;99.90;;;;;;5077442;28;20110;-82
2022/05/04 04:55:17;;;;;;;12.85;7.20;;;8.00;99.90;;;;;;5077309;28;20396;-82
2022/05/04 04:57:43;;;;;;;6.90;4.40;;;8.10;99.90;;;;;;5077087;28;20035;-82
2022/05/04 05:00:11;;;;;;;5.22;3.35;;;8.10;99.90;;;;;;5076546;28;20138;-82
2022/05/04 05:02:36;;;;;;;6.15;4.13;;;8.20;99.90;;;;;;5095285;28;20043;-81
2022/05/04 05:05:03;;;;;;;6.22;3.42;;;8.20;99.90;;;;;;5095350;28;20051;-81
2022/05/04 05:07:30;;;;;;;5.07;3.50;;;8.20;99.90;;;;;;5095215;28;20048;-82
2022/05/04 05:09:56;;;;;;;3.97;3.10;;;8.20;99.90;;;;;;5095442;28;20413;-82
2022/05/04 05:12:23;;;;;;;7.43;3.88;;;8.20;99.90;;;;;;5076984;28;20163;-81
2022/05/04 05:17:34;;;;;;;8.90;5.20;;;8.20;99.90;;;;;;5095393;28;20047;-82
2022/05/04 05:20:00;;;;;;;7.15;4.43;;;8.30;99.90;;;;;;5076879;28;20016;-82
2022/05/04 05:22:26;;;;;;;5.55;3.50;;;8.30;99.90;;;;;;5076981;28;20024;-82
2022/05/04 05:24:51;;;;;;;4.22;2.95;;;8.40;99.90;;;;;;5095151;28;20031;-82
2022/05/04 05:27:17;;;;;;;4.30;2.88;;;8.40;99.90;;;;;;5077270;28;20024;-83
2022/05/04 05:29:43;;;;;;;5.90;2.70;;;8.40;99.90;;;;;;5094887;28;20027;-81
2022/05/04 05:32:09;;;;;;;4.60;2.90;;;8.50;99.90;;;;;;5094933;28;20388;-82
2022/05/04 05:34:35;;;;;;;4.38;2.75;;;8.60;99.90;;;;;;5076662;28;20028;-82
2022/05/04 05:37:01;;;;;;;6.40;2.60;;;8.70;99.90;;;;;;5094710;28;20103;-82
2022/05/04 05:39:27;;;;;;;8.63;3.00;;;8.70;99.90;;;;;;5094975;28;20035;-83
2022/05/04 05:41:52;;;;;;;4.30;2.85;;;8.80;99.90;;;;;;5094609;28;20044;-83
2022/05/04 05:44:18;;;;;;;4.70;3.20;;;8.80;99.90;;;;;;5094097;28;20024;-82
2022/05/04 05:46:44;;;;;;;5.00;2.85;;;8.90;99.90;;;;;;5074310;28;20027;-82
2022/05/04 05:49:10;;;;;;;4.85;2.88;;;8.90;99.90;;;;;;5075830;28;20387;-82
2022/05/04 05:51:36;;;;;;;3.55;2.60;;;9.00;99.90;;;;;;5075771;28;20582;-82
2022/05/04 05:54:01;;;;;;;4.50;2.95;;;9.00;99.90;;;;;;5094026;28;20478;-82
2022/05/04 05:56:27;;;;;;;4.40;2.67;;;9.10;99.90;;;;;;5075674;28;20016;-82
2022/05/04 05:58:53;;;;;;;4.40;2.78;;;9.20;99.90;;;;;;5094747;28;20024;-83
2022/05/04 06:01:18;;;;;;;9.75;5.68;;;9.20;99.90;;;;;;5093585;28;20028;-83
2022/05/04 06:03:44;;;;;;;6.13;4.50;;;9.30;99.90;;;;;;5074186;28;20111;-83
2022/05/04 06:06:10;;;;;;;5.57;3.70;;;9.40;99.90;;;;;;5073770;28;20098;-83
2022/05/04 06:08:35;;;;;;;7.00;3.30;;;9.40;99.90;;;;;;5092353;28;20024;-82
2022/05/04 06:11:01;;;;;;;5.22;3.35;;;9.50;99.90;;;;;;5074149;28;20523;-82
2022/05/04 06:13:27;;;;;;;6.90;3.65;;;9.50;99.90;;;;;;5074128;28;20020;-82
2022/05/04 06:15:53;;;;;;;5.57;3.40;;;9.60;99.90;;;;;;5073954;28;20054;-82
2022/05/04 06:18:19;;;;;;;10.65;6.43;;;9.70;99.90;;;;;;5075560;28;20122;-82
2022/05/04 06:20:44;;;;;;;7.50;5.22;;;9.70;99.90;;;;;;5076792;28;20024;-82
2022/05/04 06:23:10;;;;;;;7.57;4.13;;;9.90;99.90;;;;;;5079593;28;20050;-82
2022/05/04 06:25:36;;;;;;;6.30;4.32;;;10.00;99.90;;;;;;5080657;28;20028;-82
2022/05/04 06:28:03;;;;;;;10.23;5.20;;;10.10;99.90;;;;;;5095517;28;20016;-82
2022/05/04 06:35:57;;;;;;;7.45;3.95;;;10.30;99.90;;;;;;5095666;28;20089;-82
2022/05/04 06:38:22;;;;;;;8.90;4.32;;;10.40;99.90;;;;;;5077655;28;20480;-82
2022/05/04 06:40:48;;;;;;;5.65;3.95;;;10.60;99.90;;;;;;5094499;28;20379;-82
2022/05/04 06:43:14;;;;;;;7.47;4.25;;;10.70;99.90;;;;;;5096308;28;20388;-82
2022/05/04 06:45:39;;;;;;;6.78;3.75;;;10.80;99.90;;;;;;5078759;28;20369;-82
2022/05/04 06:48:06;;;;;;;5.57;3.60;;;10.90;99.90;;;;;;5077856;28;20483;-82
2022/05/04 06:50:32;;;;;;;5.97;3.17;;;11.10;99.90;;;;;;5079175;28;20024;-82
2022/05/04 06:52:58;;;;;;;6.97;3.60;;;11.20;99.90;;;;;;5094595;28;20034;-82
2022/05/04 06:55:24;;;;;;;7.00;3.20;;;11.30;99.90;;;;;;5075480;28;20043;-82
2022/05/04 06:57:49;;;;;;;8.02;3.47;;;11.40;99.90;;;;;;5094323;28;20077;-82
2022/05/04 07:00:15;;;;;;;5.50;3.10;;;11.50;99.90;;;;;;5095906;28;20054;-82
2022/05/04 07:02:41;;;;;;;5.03;2.83;;;11.70;99.90;;;;;;5094635;28;20106;-82
2022/05/04 07:05:07;;;;;;;4.18;3.00;;;11.80;99.90;;;;;;5093576;28;20073;-82
2022/05/04 07:07:34;;;;;;;4.93;3.10;;;11.90;99.90;;;;;;5075483;28;20491;-82
2022/05/04 07:09:59;;;;;;;6.93;3.25;;;12.00;99.90;;;;;;5093712;28;20024;-82
2022/05/04 07:12:26;;;;;;;5.15;2.67;;;12.10;99.90;;;;;;5094075;28;20387;-82
2022/05/04 07:14:53;;;;;;;3.38;2.38;;;12.20;99.90;;;;;;5075523;28;20472;-82
2022/05/04 07:17:19;;;;;;;4.57;2.50;;;12.30;99.90;;;;;;5094273;28;20024;-82
2022/05/04 07:19:46;;;;;;;5.10;3.10;;;12.40;99.90;;;;;;5093592;28;20074;-82
2022/05/04 07:22:12;;;;;;;5.70;2.58;;;12.60;99.90;;;;;;5095711;28;20048;-82
2022/05/04 07:24:38;;;;;;;7.60;3.00;;;12.70;99.90;;;;;;5097942;28;20016;-82
2022/05/04 07:27:05;;;;;;;5.88;5.35;;;12.80;99.90;;;;;;5098284;28;20043;-82
2022/05/04 07:29:31;;;;;;;3.80;2.40;;;13.00;99.90;;;;;;5079949;28;20028;-83
2022/05/04 07:31:57;;;;;;;3.08;2.13;;;13.10;99.90;;;;;;5079063;28;20020;-83
2022/05/04 07:34:22;;;;;;;5.13;2.13;;;13.20;99.90;;;;;;5079044;28;20024;-83
2022/05/04 07:36:48;;;;;;;6.00;2.40;;;13.30;99.90;;;;;;5097132;28;20024;-83
2022/05/04 07:42:21;;;;;;;11.68;2.70;;;13.40;99.90;;;;;;5097097;28;20024;-83
2022/05/04 07:44:44;;;;;;;3.40;2.40;;;13.70;99.90;;;;;;5097505;28;20039;-82
2022/05/04 07:47:10;;;;;;;5.22;2.38;;;13.80;99.90;;;;;;5079118;28;20024;-83
2022/05/04 07:49:36;;;;;;;4.07;2.35;;;13.90;99.90;;;;;;5097452;28;20016;-83
2022/05/04 07:52:01;;;;;;;4.10;2.53;;;14.10;99.90;;;;;;5078872;28;20042;-82
2022/05/04 07:54:28;;;;;;;3.88;2.28;;;14.20;99.90;;;;;;5097337;28;20483;-82
2022/05/04 07:56:54;;;;;;;3.22;1.75;;;14.30;99.90;;;;;;5096650;28;20028;-83
2022/05/04 07:59:20;;;;;;;3.95;2.10;;;14.30;99.90;;;;;;5078555;28;20081;-82
2022/05/04 08:04:37;;;;;;;6.35;2.42;;;14.50;99.90;;;;;;5073041;28;20393;-82
2022/05/04 08:07:04;;;;;;;3.20;2.40;;;14.70;99.90;;;;;;5096401;28;20081;-82
2022/05/04 08:09:34;;;;;;;4.32;2.30;;;14.80;99.90;;;;;;5079041;28;20050;-82
2022/05/04 08:12:00;;;;;;;7.10;2.53;;;15.00;99.90;;;;;;5096755;28;20476;-81
2022/05/04 08:14:26;;;;;;;3.40;2.25;;;15.00;99.90;;;;;;5078376;28;20024;-81
2022/05/04 08:16:51;;;;;;;4.50;2.40;;;15.10;99.90;;;;;;5078217;28;20024;-81
2022/05/04 08:19:17;;;;;;;4.10;2.55;;;15.20;99.90;;;;;;5078098;28;20449;-81
2022/05/04 08:21:43;;;;;;;3.35;1.90;;;15.30;99.90;;;;;;5097017;28;20024;-81
2022/05/04 08:24:09;;;;;;;4.50;2.25;;;15.40;99.90;;;;;;5096649;28;20020;-81
2022/05/04 08:26:35;;;;;;;3.95;2.17;;;15.50;99.90;;;;;;5096954;28;20444;-81
2022/05/04 08:29:00;;;;;;;4.07;2.30;;;15.60;99.90;;;;;;5096324;28;20024;-81
2022/05/04 08:31:27;;;;;;;3.38;2.17;;;15.70;99.90;;;;;;5096014;28;20052;-81
2022/05/04 08:33:54;;;;;;;4.15;1.95;;;15.70;99.90;;;;;;5095909;28;20030;-81
2022/05/04 08:36:19;;;;;;;3.58;2.13;;;15.90;99.90;;;;;;5077850;28;20487;-82
2022/05/04 08:38:45;;;;;;;5.03;2.83;;;16.00;99.90;;;;;;5096098;28;20063;-81
2022/05/04 08:41:11;;;;;;;3.88;2.25;;;16.10;99.50;;;;;;5077588;28;20028;-81
2022/05/04 08:43:39;;;;;;;4.80;2.20;;;16.20;99.10;;;;;;5096358;28;20024;-81
2022/05/04 08:46:05;;;;;;;4.22;2.10;;;16.40;98.60;;;;;;5095934;28;20414;-81
2022/05/04 08:48:32;;;;;;;3.90;2.08;;;16.40;97.60;;;;;;5077771;28;20047;-81
2022/05/04 08:51:04;;;;;;;2.95;1.83;;;16.50;96.60;;;;;;5095889;28;20464;-81
2022/05/04 08:53:31;;;;;;;4.00;1.75;;;16.60;95.40;;;;;;5096431;28;20028;-81
2022/05/04 08:55:57;;;;;;;5.15;1.70;;;16.70;94.10;;;;;;5095491;28;20020;-81
2022/05/04 08:58:22;;;;;;;3.42;1.77;;;16.80;93.20;;;;;;5096237;28;20441;-81
2022/05/04 09:00:48;;;;;;;4.15;1.90;;;16.90;93.40;;;;;;5095763;28;20050;-81
2022/05/04 09:03:14;;;;;;;3.00;1.45;;;17.00;92.10;;;;;;5095840;28;20103;-81
2022/05/04 09:05:46;;;;;;;3.60;1.70;;;17.20;92.40;;;;;;5077389;28;20389;-81
2022/05/04 09:08:11;;;;;;;2.35;1.70;;;17.40;92.80;;;;;;5077968;28;20090;-81
2022/05/04 09:10:39;;;;;;;4.35;2.20;;;17.50;92.50;;;;;;5095674;28;20024;-81
2022/05/04 09:13:06;;;;;;;2.45;1.60;;;17.60;90.40;;;;;;5077532;28;20023;-81
2022/05/04 09:15:34;;;;;;;6.95;2.17;;;17.80;89.20;;;;;;5095226;28;20080;-81
2022/05/04 09:18:08;;;;;;;2.78;1.95;;;17.80;90.40;;;;;;5077452;28;20119;-81
2022/05/04 09:20:58;;;;;;;2.75;1.92;;;18.00;87.50;;;;;;5077020;28;20024;-81
2022/05/04 09:23:32;;;;;;;3.55;1.75;;;18.10;88.10;;;;;;5077771;28;20030;-81
2022/05/04 09:26:05;;;;;;;3.28;1.92;;;18.20;84.10;;;;;;5094996;28;20104;-81
2022/05/04 09:28:32;;;;;;;3.72;1.80;;;18.20;84.00;;;;;;5095267;28;20028;-81
2022/05/04 09:31:06;;;;;;;4.13;2.22;;;18.30;84.20;;;;;;5093997;28;20362;-81
2022/05/04 09:33:35;;;;;;;4.05;2.28;;;18.30;81.50;;;;;;5077046;28;20050;-81
2022/05/04 09:36:05;;;;;;;4.20;2.10;;;18.20;81.20;;;;;;5094728;28;20094;-81
2022/05/04 09:46:52;;;;;;;4.60;2.40;;;18.60;79.10;;;;;;5095068;28;20035;-81
2022/05/04 09:49:20;;;;;;;23.63;2.95;;;18.80;80.40;;;;;;5094945;28;20031;-81
2022/05/04 09:51:52;;;;;;;3.83;2.28;;;19.00;75.30;;;;;;5098892;28;20019;-81
2022/05/04 09:54:19;;;;;;;5.53;2.05;;;19.10;72.20;;;;;;5113556;28;20027;-81
2022/05/04 09:56:46;;;;;;;;;;;19.10;75.20;;;;;;5114966;28;20030;-81
2022/05/04 09:59:13;;;;;;;;;;;19.20;74.60;;;;;;5113832;28;19943;-81
2022/05/04 10:01:40;;;;;;;;;;;19.20;75.10;;;;;;5115113;27;19956;-81
2022/05/04 10:04:05;;;;;;;;;;;19.20;74.10;;;;;;5114144;28;19904;-81
2022/05/04 10:06:31;;;;;;;;;;;19.20;74.40;;;;;;5114134;28;19914;-81
2022/05/04 10:08:57;;;;;;;;;;;19.20;71.70;;;;;;5115007;28;19911;-81
2022/05/04 10:11:22;;;;;;;;;;;19.20;68.60;;;;;;5116185;28;20344;-81
2022/05/04 10:13:52;;;;;;;;;;;19.10;69.30;;;;;;5114893;28;20375;-81
2022/05/04 10:16:18;;;;;;;;;;;19.10;70.20;;;;;;5115286;28;19903;-81
2022/05/04 10:18:46;;;;;;;;;;;19.10;67.70;;;;;;5114272;28;19932;-81
2022/05/04 10:21:12;;;;;;;;;;;19.00;65.20;;;;;;5116539;28;19904;-81
2022/05/04 10:23:43;;;;;;;;;;;19.10;66.30;;;;;;5116353;28;19990;-81
2022/05/04 10:26:11;;;;;;;;;;;19.10;64.90;;;;;;5114956;28;19991;-81
2022/05/04 10:28:37;;;;;;;;;;;19.10;64.40;;;;;;5114042;28;20321;-81
2022/05/04 10:31:07;;;;;;;;;;;19.20;64.40;;;;;;5115202;28;19929;-81
2022/05/04 10:33:35;;;;;;;;;;;19.20;65.20;;;;;;5114750;28;19915;-81
2022/05/04 10:36:17;;;;;;;;;;;19.30;68.50;;;;;;5113135;28;19904;-81
2022/05/04 10:38:43;;;;;;;;;;;19.40;68.10;;;;;;5114602;28;19907;-81
2022/05/04 10:41:09;;;;;;;;;;;19.60;67.20;;;;;;5114896;28;20014;-81
2022/05/04 10:43:43;;;;;;;;;;;19.50;67.60;;;;;;5113449;28;20018;-81
2022/05/04 10:46:10;;;;;;;;;;;19.40;68.20;;;;;;5114697;28;20287;-81
2022/05/04 10:48:42;;;;;;;;;;;19.30;68.40;;;;;;5117087;28;19926;-81
2022/05/04 10:51:12;;;;;;;;;;;19.40;68.70;;;;;;5117272;28;19942;-81
2022/05/04 10:53:39;;;;;;;;;;;19.50;65.90;;;;;;5113244;28;20367;-81
2022/05/04 10:56:06;;;;;;;;;;;19.70;66.80;;;;;;5113354;28;19904;-80
2022/05/04 10:58:32;;;;;;;;;;;19.90;68.30;;;;;;5118546;28;19942;-81
2022/05/04 11:01:03;;;;;;;;;;;20.10;67.80;;;;;;5118745;28;19904;-81
2022/05/04 11:03:35;;;;;;;;;;;20.40;66.20;;;;;;5118701;28;19904;-82
2022/05/04 11:06:24;;;;;;;;;;;20.60;66.80;;;;;;5118426;28;19922;-81
2022/05/04 11:08:49;;;;;;;;;;;20.90;64.20;;;;;;5107494;28;19931;-82
2022/05/04 11:11:15;;;;;;;;;;;21.10;66.50;;;;;;5118446;28;19955;-81
2022/05/04 11:13:43;;;;;;;;;;;21.30;69.00;;;;;;5118486;28;19911;-81
2022/05/04 11:16:09;;;;;;;;;;;21.30;64.40;;;;;;5118251;28;19904;-82
2022/05/04 11:18:35;;;;;;;;;;;21.20;62.50;;;;;;5118240;28;19911;-82
2022/05/04 11:21:05;;;;;;;;;;;21.00;60.80;;;;;;5121468;28;19942;-81
2022/05/04 11:23:31;;;;;;;;;;;20.90;60.70;;;;;;5118588;28;19910;-82
2022/05/04 11:25:56;;;;;;;;;;;20.70;61.20;;;;;;5118563;28;19994;-82
2022/05/04 11:28:22;;;;;;;;;;;20.50;61.20;;;;;;5121612;28;19907;-82
2022/05/04 11:30:48;;;;;;;;;;;20.40;64.60;;;;;;5118755;28;19952;-82
2022/05/04 11:33:14;;;;;;;;;;;20.20;66.20;;;;;;5116623;28;19903;-82
2022/05/04 11:35:43;;;;;;;;;;;20.10;64.80;;;;;;5118973;28;19903;-82
2022/05/04 11:38:15;;;;;;;;;;;19.90;65.80;;;;;;5117484;28;19911;-82
2022/05/04 11:40:45;;;;;;;;;;;19.90;67.10;;;;;;5119810;28;19950;-81
2022/05/04 11:43:20;;;;;;;;;;;19.90;64.30;;;;;;5118209;28;20332;-81
2022/05/04 11:45:46;;;;;;;;;;;20.00;65.70;;;;;;5116676;28;19915;-82
2022/05/04 11:48:12;;;;;;;;;;;20.10;63.00;;;;;;5116732;28;20339;-80
2022/05/04 11:50:37;;;;;;;;;;;20.20;62.80;;;;;;5118097;28;19907;-82
2022/05/04 11:53:03;;;;;;;;;;;20.40;63.40;;;;;;5116936;28;19903;-81
2022/05/04 11:55:29;;;;;;;;;;;20.40;59.20;;;;;;5117766;28;19908;-81
2022/05/04 11:57:58;;;;;;;;;;;20.30;61.40;;;;;;5117679;28;19904;-81
2022/05/04 12:00:24;;;;;;;;;;;20.30;61.00;;;;;;5117704;28;19966;-81
2022/05/04 12:02:49;;;;;;;;;;;20.40;59.80;;;;;;5118044;28;19904;-82
2022/05/04 12:05:15;;;;;;;;;;;20.40;59.90;;;;;;5119177;28;19942;-81
2022/05/04 12:07:41;;;;;;;;;;;20.20;59.30;;;;;;5105072;28;19904;-82
2022/05/04 12:10:07;;;;;;;;;;;20.20;58.90;;;;;;5117141;28;19908;-82
2022/05/04 12:12:33;;;;;;;;;;;20.20;59.80;;;;;;5098843;28;19908;-81
2022/05/04 12:15:01;;;;;;;;;;;20.40;61.40;;;;;;5098867;28;19907;-81
2022/05/04 12:17:26;;;;;;;;;;;20.60;57.50;;;;;;5117169;28;19911;-81
2022/05/04 12:19:53;;;;;;;;;;;20.90;57.60;;;;;;5117077;28;20367;-81
2022/05/04 12:22:19;;;;;;;;;;;21.10;57.70;;;;;;5098662;28;19911;-81
2022/05/04 12:24:45;;;;;;;;;;;21.20;54.80;;;;;;5116922;28;20275;-82
2022/05/04 12:27:11;;;;;;;;;;;21.20;56.60;;;;;;5116866;28;19914;-82
2022/05/04 12:35:05;;;;;;;;;;;21.20;56.40;;;;;;5116707;28;19957;-81
2022/05/04 12:37:31;;;;;;;;;;;21.00;55.70;;;;;;5116526;28;20339;-81
2022/05/04 12:39:57;;;;;;;;;;;20.90;55.90;;;;;;5116520;28;20326;-81
2022/05/04 12:42:24;;;;;;;;;;;20.80;56.70;;;;;;5115126;28;19912;-81
2022/05/04 12:44:50;;;;;;;;;;;20.90;55.60;;;;;;5098111;28;19908;-81
2022/05/04 12:47:16;;;;;;;;;;;20.90;54.80;;;;;;5116322;28;19930;-81
2022/05/04 12:49:42;;;;;;;;;;;21.00;56.40;;;;;;5116569;28;20355;-81
2022/05/04 12:52:08;;;;;;;;;;;21.20;56.40;;;;;;5116922;28;19904;-80
2022/05/04 12:54:34;;;;;;;;;;;21.30;53.90;;;;;;5116673;28;19910;-81
2022/05/04 12:57:02;;;;;;;;;;;21.30;53.10;;;;;;5116141;28;19907;-82
2022/05/04 12:59:28;;;;;;;;;;;21.30;54.80;;;;;;5116036;28;19910;-81
2022/05/04 13:01:54;;;;;;;;;;;21.50;54.50;;;;;;5104935;27;19948;-80
2022/05/04 13:04:19;;;;;;;;;;;21.70;55.10;;;;;;5131664;27;19904;-80
2022/05/04 13:06:45;;;;;;;;;;;21.90;54.00;;;;;;5136835;27;19914;-80
2022/05/04 13:09:11;;;;;;;;;;;22.00;51.00;;;;;;5117820;27;19904;-81
2022/05/04 13:11:37;;;;;;;;;;;22.00;53.10;;;;;;5116418;28;19979;-80
2022/05/04 13:14:03;;;;;;;;;;;22.00;53.80;;;;;;5115649;28;19908;-81
2022/05/04 13:16:29;;;;;;;;;;;22.20;54.10;;;;;;5115271;28;20374;-80
2022/05/04 13:18:54;;;;;;;;;;;22.30;52.60;;;;;;5106791;28;19953;-80
2022/05/04 13:21:21;;;;;;;;;;;22.30;50.60;;;;;;5110634;27;19939;-80
2022/05/04 13:23:47;;;;;;;;;;;22.00;53.10;;;;;;5117428;27;19904;-81
2022/05/04 13:26:14;;;;;;;;;;;21.60;54.90;;;;;;5131313;27;19995;-80
2022/05/04 13:28:39;;;;;;;;;;;21.50;55.20;;;;;;5115742;28;19990;-80
2022/05/04 13:31:05;;;;;;;;;;;21.30;54.60;;;;;;5108852;27;19907;-80
2022/05/04 13:33:31;;;;;;;;;;;21.20;53.30;;;;;;5117802;27;20003;-80
2022/05/04 13:35:58;;;;;;;;;;;21.30;55.20;;;;;;5136088;27;19903;-79
2022/05/04 13:38:23;;;;;;;;;;;21.50;54.30;;;;;;5133136;27;19904;-79
2022/05/04 13:40:49;;;;;;;;;;;21.50;54.60;;;;;;5116267;28;19904;-80
2022/05/04 13:43:15;;;;;;;;;;;21.50;55.50;;;;;;5115835;28;19915;-79
2022/05/04 13:45:40;;;;;;;;;;;21.50;55.70;;;;;;5116611;28;19958;-80
2022/05/04 13:48:06;;;;;;;;;;;21.60;56.20;;;;;;5116320;28;19999;-79
2022/05/04 13:53:16;;;;;;;;;;;21.60;53.20;;;;;;5109642;28;19999;-80